Station: Borroloola  

  Atmospheric Gas Attenuation - ITU Rec 676-11   ----------------- dB/100km -----------------
Date Time Temp RH % AH g/m3 Dew Point Wind Direction Speed kph Gust kph Barometer mB Rainfall Since 9am 24GHz 47GHz 76GHz 122GHz 134GHz 241GHz
05/09 08:20 21.8 98 18.8 21.5 6 7 1017.7 0 40.8 41.4 79.9 211.2 232.2 805.9
05/09 08:10 21.6 98 18.59 21.3 6 9 1017.6 0 40.4 41.1 79.0 209.0 229.4 796.3
05/09 08:00 21.4 98 18.37 21.1 7 11 1017.6 0 40.0 40.8 78.1 206.6 226.5 786.1
05/09 07:50 21.1 98 18.06 20.8 7 9 1017.7 0 39.3 40.3 76.9 203.4 222.4 772.0
05/09 07:40 20.8 98 17.74 20.5 7 7 1017.5 0 38.7 39.8 75.7 200.0 218.2 757.2
05/09 07:30 20.6 98 17.54 20.3 9 9 1017.4 0 38.3 39.5 74.9 197.9 215.6 748.0
05/09 07:20 20.3 98 17.23 20 9 11 1017.3 0 37.6 39.0 73.7 194.7 211.5 733.8
05/09 07:10 20.1 98 17.03 19.8 11 15 1017.3 0 37.2 38.8 72.9 192.7 208.9 724.8
05/09 07:00 20 98 16.93 19.7 9 13 1017.1 0 37.0 38.6 72.5 191.6 207.6 720.2
05/09 06:50 19.6 98 16.54 19.3 9 11 1017 0 36.2 38.0 71.0 187.6 202.5 702.5
05/09 06:40 19.4 98 16.35 19.1 7 11 1017 0 35.8 37.7 70.3 185.7 200.1 694.0
05/09 06:30 19.2 98 16.16 18.9 0 6 1016.8 0 35.4 37.5 69.5 183.7 197.6 685.4
05/09 06:20 19.1 98 16.06 18.8 0 0 1016.6 0 35.2 37.3 69.1 182.6 196.3 680.8
05/09 06:10 19 97 15.81 18.5 0 0 1016.5 0 34.7 36.9 68.0 179.7 192.7 668.1
05/09 06:00 18.8 97 15.62 18.3 0 0 1016.5 0 34.3 36.6 67.3 177.8 190.2 659.7
05/09 05:50 18.7 97 15.53 18.2 0 0 1016.4 0 34.1 36.5 67.0 176.9 189.1 655.6
05/09 05:40 18.8 97 15.62 18.3 0 0 1016.3 0 34.3 36.6 67.3 177.8 190.2 659.6
05/09 05:30 18.6 97 15.44 18.1 0 0 1016.1 0 33.9 36.3 66.6 175.9 187.9 651.5
05/09 05:20 18.6 97 15.44 18.1 0 0 1016 0 33.9 36.3 66.6 175.9 187.9 651.5
05/09 05:10 18.6 96 15.28 17.9 0 0 1016 0 33.6 36.0 65.9 173.9 185.4 642.9
05/09 05:00 18.5 96 15.19 17.9 0 0 1016 0 33.4 35.9 65.5 173.0 184.3 638.9
05/09 04:50 18.4 96 15.1 17.8 0 0 1015.9 0 33.2 35.8 65.2 172.1 183.2 634.9
05/09 04:40 18.5 96 15.19 17.8 6 6 1015.9 0 33.4 35.9 65.5 173.0 184.3 638.9
05/09 04:30 18.8 96 15.46 18.1 0 0 1015.9 0 34.0 36.3 66.5 175.7 187.7 650.8
05/09 04:20 18.8 96 15.46 18.1 0 0 1015.9 0 34.0 36.3 66.5 175.7 187.7 650.8
05/09 04:10 18.9 94 15.23 17.9 0 0 1015.9 0 33.5 35.8 65.4 172.6 183.9 637.7
05/09 04:00 19.4 94 15.68 18.4 0 0 1015.8 0 34.4 36.4 67.0 177.0 189.5 657.3
05/09 03:50 19.4 93 15.52 18.2 0 0 1015.8 0 34.0 36.1 66.3 175.0 187.1 648.8
05/09 03:40 19.5 94 15.77 18.5 0 0 1015.8 0 34.6 36.5 67.4 177.9 190.7 661.3
05/09 03:30 19.5 94 15.77 18.5 0 0 1015.7 0 34.6 36.5 67.3 177.9 190.7 661.2
05/09 03:20 19.6 91 15.36 18.1 0 0 1015.8 0 33.7 35.7 65.4 172.6 184.2 638.6
05/09 03:10 19.8 90 15.37 18.1 0 0 1015.8 0 33.7 35.7 65.2 172.3 183.8 637.4
05/09 03:00 19.8 88 15.03 17.8 0 0 1015.9 0 33.0 35.0 63.7 168.1 178.7 619.7
05/09 02:50 20 91 15.73 18.5 0 0 1016 0 34.4 36.3 66.7 176.3 188.8 654.9
05/09 02:40 19.9 84 14.43 17.1 0 0 1016.2 0 31.7 33.9 60.9 160.7 169.6 588.0
05/09 02:30 20.1 86 14.95 17.7 0 0 1016.2 0 32.8 34.8 63.1 166.5 176.8 613.2
05/09 02:20 20.1 86 14.95 17.7 0 0 1016.2 0 32.8 34.8 63.1 166.5 176.8 613.2
05/09 02:10 20.2 83 14.51 17.2 0 0 1016.3 0 31.8 34.0 61.0 161.0 170.1 589.8
05/09 02:00 20.5 88 15.66 18.4 0 0 1016.4 0 34.2 35.9 66.0 174.3 186.6 647.1
05/09 01:50 20.6 86 15.39 18.2 0 0 1016.4 0 33.7 35.4 64.7 170.8 182.2 632.1
05/09 01:40 20.6 90 16.11 18.9 0 0 1016.6 0 35.2 36.7 68.0 179.7 193.2 670.1
05/09 01:30 20.8 88 15.93 18.7 0 0 1016.7 0 34.8 36.3 67.0 177.0 189.9 658.8
05/09 01:20 20.8 88 15.93 18.7 0 0 1016.7 0 34.8 36.3 67.0 177.0 189.9 658.8
05/09 01:10 20.9 88 16.03 18.8 0 0 1016.8 0 35.0 36.5 67.4 178.0 191.2 663.3
05/09 01:00 21.1 86 15.84 18.7 0 0 1017 0 34.6 36.0 66.3 175.2 187.8 651.7
05/09 00:50 21.7 92 17.55 20.3 0 0 1017.1 0 38.2 39.0 73.8 195.2 212.5 737.6
05/09 00:40 21.8 92 17.65 20.4 0 0 1017.2 0 38.4 39.2 74.2 196.2 213.8 742.1
05/09 00:30 21.9 93 17.94 20.7 0 0 1017.3 0 39.0 39.7 75.5 199.7 218.1 757.0
05/09 00:20 21.8 91 17.46 20.3 0 0 1017.4 0 38.0 38.8 73.3 193.8 210.9 731.8
05/09 00:10 21.8 90 17.27 20.1 0 0 1017.5 0 37.6 38.4 72.4 191.4 207.9 721.6
05/09 00:00 22 91 17.66 20.5 0 0 1017.5 0 38.4 39.1 74.1 195.8 213.4 740.8
04/09 23:50 22 90 17.47 20.3 0 0 1017.6 0 38.0 38.7 73.2 193.4 210.5 730.6
04/09 23:40 22.1 90 17.57 20.4 0 0 1017.6 0 38.2 38.9 73.6 194.5 211.7 735.0
04/09 23:30 22.1 91 17.76 20.6 4 6 1017.6 0 38.6 39.2 74.5 196.9 214.7 745.3
04/09 23:20 22.2 90 17.67 20.5 2 7 1017.7 0 38.4 39.0 74.0 195.5 213.0 739.5
04/09 23:10 22.2 88 17.28 20.1 0 6 1017.7 0 37.5 38.3 72.1 190.6 207.0 718.4
04/09 23:00 22.5 88 17.58 20.4 0 0 1017.7 0 38.2 38.7 73.2 193.6 210.8 731.7
04/09 22:50 22.6 88 17.68 20.5 0 0 1017.7 0 38.4 38.9 73.6 194.6 212.0 736.1
04/09 22:40 22.7 86 17.37 20.2 0 0 1017.8 0 37.7 38.2 72.1 190.4 207.0 718.6
04/09 22:30 22.8 87 17.68 20.5 0 0 1017.9 0 38.3 38.8 73.4 194.1 211.5 734.3
04/09 22:20 23 87 17.88 20.7 0 0 1017.9 0 38.7 39.1 74.2 196.1 214.0 743.1
04/09 22:10 23.1 86 17.78 20.6 2 7 1017.9 0 38.5 38.8 73.6 194.6 212.2 736.7
04/09 22:00 23.2 86 17.88 20.7 0 6 1017.9 0 38.7 39.0 74.0 195.6 213.5 741.1
04/09 21:50 23.3 85 17.77 20.6 6 7 1017.8 0 38.5 38.7 73.4 193.9 211.5 734.2
04/09 21:40 23.5 85 17.97 20.8 7 9 1017.8 0 38.9 39.0 74.1 195.9 214.0 742.9
04/09 21:30 23.6 85 18.08 20.9 7 9 1017.7 0 39.1 39.2 74.5 197.0 215.4 747.8
04/09 21:20 23.7 84 17.97 20.8 7 11 1017.6 0 38.9 38.9 73.9 195.4 213.4 740.9
04/09 21:10 23.9 83 17.96 20.8 9 13 1017.5 0 38.8 38.8 73.7 194.7 212.6 738.3
04/09 21:00 24.1 82 17.94 20.8 13 17 1017.4 0 38.8 38.6 73.4 193.9 211.7 735.3
04/09 20:50 24.1 81 17.72 20.6 9 13 1017.4 0 38.3 38.2 72.3 191.2 208.4 723.6
04/09 20:40 24.3 81 17.92 20.8 11 15 1017.3 0 38.7 38.5 73.1 193.2 210.9 732.2
04/09 20:30 24.4 80 17.8 20.7 9 13 1017.2 0 38.4 38.2 72.4 191.4 208.8 724.9
04/09 20:20 24.5 79 17.68 20.6 11 15 1017.1 0 38.2 38.0 71.8 189.7 206.6 717.6
04/09 20:10 24.6 78 17.56 20.5 11 13 1016.9 0 37.9 37.7 71.1 187.9 204.5 710.3
04/09 20:00 24.8 78 17.75 20.7 11 15 1016.9 0 38.3 37.9 71.8 189.8 206.8 718.3
04/09 19:50 25 77 17.72 20.7 11 15 1016.8 0 38.2 37.8 71.4 188.9 205.8 714.8
04/09 19:40 25.1 75 17.36 20.4 13 17 1016.7 0 37.4 37.1 69.7 184.3 200.2 695.2
04/09 19:30 25.3 74 17.32 20.3 11 17 1016.6 0 37.3 36.9 69.3 183.3 199.1 691.3
04/09 19:20 25.5 72 17.05 20.1 13 19 1016.4 0 36.8 36.3 67.9 179.6 194.5 675.6
04/09 19:10 25.8 69 16.61 19.7 13 17 1016.2 0 35.8 35.4 65.7 173.6 187.4 650.7
04/09 19:00 26 67 16.31 19.4 13 19 1016 0 35.2 34.8 64.2 169.7 182.6 634.0
04/09 18:50 26.3 63 15.6 18.7 15 20 1015.8 0 33.6 33.5 60.9 160.9 171.9 596.8
04/09 18:40 26.6 60 15.1 18.2 17 22 1015.6 0 32.6 32.5 58.6 154.7 164.3 570.5
04/09 18:30 26.8 59 15.02 18.1 15 20 1015.5 0 32.4 32.3 58.1 153.4 162.8 565.2
04/09 18:20 27 59 15.19 18.3 17 22 1015.4 0 32.7 32.5 58.6 154.9 164.7 571.8
04/09 18:10 27.4 57 15 18.1 19 30 1015.3 0 32.3 32.0 57.6 152.0 161.3 559.9
04/09 18:00 28 53 14.41 17.5 19 28 1015.2 0 31.0 30.8 54.7 144.5 152.2 528.4
04/09 17:50 28.4 49 13.62 16.7 19 24 1015 0 29.3 29.4 51.3 135.4 141.2 490.1
04/09 17:40 28.7 50 14.13 17.2 19 26 1014.9 0 30.4 30.1 53.1 140.2 147.2 511.0
04/09 17:30 29.2 48 13.94 17.1 20 30 1014.8 0 29.9 29.7 52.1 137.4 143.8 499.3
04/09 17:20 29.5 49 14.46 17.7 22 32 1014.6 0 31.0 30.4 53.9 142.2 149.9 520.4
04/09 17:10 29.8 50 15 18.3 20 26 1014.4 0 32.1 31.1 55.8 147.3 156.3 542.7
04/09 17:00 30.9 49 15.6 18.9 20 28 1014.3 0 33.3 31.7 57.4 151.6 161.8 562.1
04/09 16:50 30.7 50 15.75 19.1 19 24 1014.3 0 33.6 32.0 58.1 153.5 164.2 570.4
04/09 16:40 30.9 49 15.6 18.9 19 30 1014.1 0 33.3 31.7 57.4 151.5 161.8 562.0
04/09 16:30 30.6 49 15.35 18.7 20 28 1014 0 32.8 31.4 56.6 149.5 159.1 552.8
04/09 16:20 31 48 15.37 18.7 22 35 1013.9 0 32.8 31.3 56.4 148.9 158.6 550.9
04/09 16:10 31.3 48 15.61 19 20 26 1013.9 0 33.3 31.5 57.1 150.9 161.0 559.6
04/09 16:00 31.4 47 15.37 18.7 20 28 1013.9 0 32.7 31.1 56.1 148.2 157.7 548.1
04/09 15:50 32.4 43 14.83 18.2 19 24 1013.9 0 31.6 29.9 53.3 140.8 149.0 517.5

Last Refresh: 05-Sep-2026 08:28:55

Bureau of Meteorology